Pongnae — 3FDZ8 — position and weather

sailwx.info

Track history (hours):
 
Tides and Currents Weather Stations Pressure Air Temp Water Temp Dewpoint Dewpoint Depression Visibility Wind Speed Wind Dir Waves Ship Positions

Pongnae

Operator: V Ships Leisure SAM

Last reported at 2014-Sep-19 12:33 UTC. Time now 2014-Sep-19 22:01 UTC.
Position N 22°18' E 114°13'.

Length 171 m; draft 6.6 m.

Type: Passenger vessel. MMSI: 353669000.

Date/timePositionNaut miles runAvg speedWind from/ knotsBaromVisibWave heightAir tempDewpointWater temp
2014-Sep-19 12:33N 22°18' E 114°13'0 0.0
2014-Sep-19 11:33N 22°18' E 114°13'0 0.0
2014-Sep-19 10:33N 22°18' E 114°13'0 0.0
2014-Sep-19 09:33N 22°18' E 114°13'0 0.0
2014-Sep-19 08:33N 22°18' E 114°13'0 0.0
2014-Sep-19 07:33N 22°18' E 114°13'0 0.0
2014-Sep-19 06:33N 22°18' E 114°13'0 0.1
2014-Sep-19 05:33N 22°18' E 114°13'0 0.0
2014-Sep-19 04:33N 22°18' E 114°13'0 0.0
2014-Sep-19 03:33N 22°18' E 114°13'0 0.0
2014-Sep-19 02:33N 22°18' E 114°13'0 0.0
2014-Sep-19 01:32N 22°18' E 114°13'0 0.0
2014-Sep-19 00:32N 22°18' E 114°13'0 0.0
2014-Sep-18 12:33N 22°18' E 114°13'0 0.1
2014-Sep-18 11:33N 22°18' E 114°13'0 0.0
2014-Sep-18 10:33N 22°18' E 114°13'0 0.0
2014-Sep-18 09:33N 22°18' E 114°13'0 0.0
2014-Sep-18 08:24N 22°18' E 114°13'0 0.0
2014-Sep-18 07:33N 22°18' E 114°13'0 0.0
2014-Sep-18 06:33N 22°18' E 114°13'0 0.0
2014-Sep-18 05:33N 22°18' E 114°13'0 0.0
2014-Sep-18 04:33N 22°18' E 114°13'0 0.1
2014-Sep-18 03:33N 22°18' E 114°13'0 0.1
2014-Sep-18 02:33N 22°18' E 114°13'0 0.1
2014-Sep-18 01:33N 22°18' E 114°13'0 0.0
2014-Sep-18 00:30N 22°18' E 114°13'1 1.0
2014-Sep-17 23:33N 22°17' E 114°14'1 0.1
2014-Sep-17 12:28N 22°18' E 114°13'0 0.0
2014-Sep-17 11:31N 22°18' E 114°13'0 0.0
2014-Sep-17 10:31N 22°18' E 114°13'0 0.0
2014-Sep-17 09:31N 22°18' E 114°13'0 0.0
2014-Sep-17 08:31N 22°18' E 114°13'0 0.0
2014-Sep-17 07:31N 22°18' E 114°13'0 0.0
2014-Sep-17 06:28N 22°18' E 114°13'0 0.0
2014-Sep-17 05:31N 22°18' E 114°13'0 0.0
2014-Sep-17 04:28N 22°18' E 114°13'0 0.0
2014-Sep-17 03:25N 22°18' E 114°13'0 0.0
2014-Sep-17 02:31N 22°18' E 114°13'0 0.0
2014-Sep-17 01:31N 22°18' E 114°13'0 0.1
2014-Sep-17 00:33N 22°18' E 114°13'6 2.5
2014-Sep-16 22:16N 22°18' E 114°07'0 0.0
2014-Sep-16 20:04N 22°18' E 114°07'0 0.0
2014-Sep-16 15:09N 22°18' E 114°07'0 0.0
2014-Sep-16 14:33N 22°18' E 114°07'0 0.0
2014-Sep-16 13:15N 22°18' E 114°07'0 0.0
2014-Sep-16 12:33N 22°18' E 114°07'0 0.0
2014-Sep-16 06:03N 22°18' E 114°07'0 0.0
2014-Sep-16 03:27N 22°18' E 114°07'0 0.0
2014-Sep-16 02:09N 22°18' E 114°07'0 0.0
2014-Sep-15 22:27N 22°18' E 114°07'2 0.1
2014-Sep-15 07:33N 22°18' E 114°09'4 3.5
2014-Sep-15 06:25N 22°18' E 114°13'0 0.0
2014-Sep-15 05:31N 22°18' E 114°13'0 0.0
2014-Sep-15 04:31N 22°18' E 114°13'0 0.1
2014-Sep-15 03:22N 22°18' E 114°13'0 0.1
2014-Sep-15 02:25N 22°18' E 114°13'0 0.0
2014-Sep-15 01:31N 22°18' E 114°13'0 0.0
2014-Sep-15 00:31N 22°18' E 114°13'1 1.0
2014-Sep-14 23:34N 22°17' E 114°14'1 0.1
2014-Sep-14 12:33N 22°18' E 114°13'0 0.0
2014-Sep-14 11:33N 22°18' E 114°13'0 0.0
2014-Sep-14 10:33N 22°18' E 114°13'0 0.1
2014-Sep-14 09:33N 22°18' E 114°13'0 0.1
2014-Sep-14 08:33N 22°18' E 114°13'0 0.1
2014-Sep-14 07:33N 22°18' E 114°13'0 0.1
2014-Sep-14 06:33N 22°18' E 114°13'0 0.1
2014-Sep-14 05:33N 22°18' E 114°13'0 0.0
2014-Sep-14 04:33N 22°18' E 114°13'0 0.0
2014-Sep-14 03:33N 22°18' E 114°13'0 0.0
2014-Sep-14 02:33N 22°18' E 114°13'0 0.0
2014-Sep-14 01:32N 22°18' E 114°13'0 0.0
2014-Sep-13 12:33N 22°18' E 114°13'0 0.1
2014-Sep-13 11:33N 22°18' E 114°13'0 0.1
2014-Sep-13 10:33N 22°18' E 114°13'0 0.0
2014-Sep-13 09:33N 22°18' E 114°13'0 0.0
2014-Sep-13 08:33N 22°18' E 114°13'0 0.0
2014-Sep-13 07:33N 22°18' E 114°13'0 0.0
2014-Sep-13 06:33N 22°18' E 114°13'0 0.1
2014-Sep-13 05:33N 22°18' E 114°13'0 0.0
2014-Sep-13 04:33N 22°18' E 114°13'0 0.0
2014-Sep-13 03:33N 22°18' E 114°13'0 0.0
2014-Sep-13 02:32N 22°18' E 114°13'0 0.0
2014-Sep-13 01:32N 22°18' E 114°13'0 0.0
2014-Sep-13 00:32N 22°18' E 114°13'1 0.6
2014-Sep-12 23:33N 22°17' E 114°14'1 0.1
2014-Sep-12 12:31N 22°18' E 114°13'0 0.1
2014-Sep-12 11:31N 22°18' E 114°13'0 0.0
2014-Sep-12 10:31N 22°18' E 114°13'0 0.1
2014-Sep-12 09:31N 22°18' E 114°13'0 0.0
2014-Sep-12 08:31N 22°18' E 114°13'0 0.1
2014-Sep-12 07:31N 22°18' E 114°13'0 0.1
2014-Sep-12 06:31N 22°18' E 114°13'0 0.0
2014-Sep-12 05:31N 22°18' E 114°13'0 0.1
2014-Sep-12 04:28N 22°18' E 114°13'0 0.0
2014-Sep-12 03:31N 22°18' E 114°13'0 0.0
2014-Sep-12 02:31N 22°18' E 114°13'0 0.0
2014-Sep-12 01:28N 22°18' E 114°13'0 0.0
2014-Sep-12 00:31N 22°18' E 114°13'1 0.9
2014-Sep-11 23:33N 22°17' E 114°14'1 0.1
2014-Sep-11 12:33N 22°18' E 114°13'0 0.0
2014-Sep-11 11:33N 22°18' E 114°13'0 0.0
2014-Sep-11 10:33N 22°18' E 114°13'0 0.1
2014-Sep-11 09:27N 22°18' E 114°13'0 0.0
2014-Sep-11 08:33N 22°18' E 114°13'0 0.0
2014-Sep-11 07:33N 22°18' E 114°13'0 0.0
2014-Sep-11 06:30N 22°18' E 114°13'0 0.0
2014-Sep-11 05:33N 22°18' E 114°13'0 0.0
2014-Sep-11 04:33N 22°18' E 114°13'0 0.0
2014-Sep-11 03:33N 22°18' E 114°13'0 0.1
2014-Sep-11 02:30N 22°18' E 114°13'0 0.0
2014-Sep-11 01:33N 22°18' E 114°13'0 0.0
2014-Sep-11 00:33N 22°18' E 114°13'1 1.0
2014-Sep-10 23:33N 22°17' E 114°14'1 0.1
2014-Sep-10 12:32N 22°18' E 114°13'0 0.1
2014-Sep-10 11:32N 22°18' E 114°13'0 0.0
2014-Sep-10 10:32N 22°18' E 114°13'0 0.0
2014-Sep-10 09:32N 22°18' E 114°13'0 0.1
2014-Sep-10 08:32N 22°18' E 114°13'0 0.0
2014-Sep-10 07:32N 22°18' E 114°13'0 0.0
2014-Sep-10 06:32N 22°18' E 114°13'0 0.0
2014-Sep-10 05:32N 22°18' E 114°13'0 0.0
2014-Sep-10 04:32N 22°18' E 114°13'0 0.0
2014-Sep-10 03:32N 22°18' E 114°13'0 0.0
2014-Sep-10 02:32N 22°18' E 114°13'0 0.0
2014-Sep-10 01:32N 22°18' E 114°13'0 0.1
2014-Sep-10 00:32N 22°18' E 114°13'1 0.5
2014-Sep-09 23:33N 22°17' E 114°14'  
Track history (hours):
 
Tides and Currents Weather Stations Pressure Air Temp Water Temp Dewpoint Dewpoint Depression Visibility Wind Speed Wind Dir Waves Ship Positions

Pongnae

Operator: V Ships Leisure SAM

Last reported at 2014-Sep-19 12:33 UTC. Time now 2014-Sep-19 22:01 UTC.
Position N 22°18' E 114°13'.

Length 171 m; draft 6.6 m.

Type: Passenger vessel. MMSI: 353669000.

Date/timePositionNaut miles runAvg speedWind from/ knotsBaromVisibWave heightAir tempDewpointWater temp
2014-Sep-19 12:33N 22°18' E 114°13'0 0.0
2014-Sep-19 11:33N 22°18' E 114°13'0 0.0
2014-Sep-19 10:33N 22°18' E 114°13'0 0.0
2014-Sep-19 09:33N 22°18' E 114°13'0 0.0
2014-Sep-19 08:33N 22°18' E 114°13'0 0.0
2014-Sep-19 07:33N 22°18' E 114°13'0 0.0
2014-Sep-19 06:33N 22°18' E 114°13'0 0.1
2014-Sep-19 05:33N 22°18' E 114°13'0 0.0
2014-Sep-19 04:33N 22°18' E 114°13'0 0.0
2014-Sep-19 03:33N 22°18' E 114°13'0 0.0
2014-Sep-19 02:33N 22°18' E 114°13'0 0.0
2014-Sep-19 01:32N 22°18' E 114°13'0 0.0
2014-Sep-19 00:32N 22°18' E 114°13'0 0.0
2014-Sep-18 12:33N 22°18' E 114°13'0 0.1
2014-Sep-18 11:33N 22°18' E 114°13'0 0.0
2014-Sep-18 10:33N 22°18' E 114°13'0 0.0
2014-Sep-18 09:33N 22°18' E 114°13'0 0.0
2014-Sep-18 08:24N 22°18' E 114°13'0 0.0
2014-Sep-18 07:33N 22°18' E 114°13'0 0.0
2014-Sep-18 06:33N 22°18' E 114°13'0 0.0
2014-Sep-18 05:33N 22°18' E 114°13'0 0.0
2014-Sep-18 04:33N 22°18' E 114°13'0 0.1
2014-Sep-18 03:33N 22°18' E 114°13'0 0.1
2014-Sep-18 02:33N 22°18' E 114°13'0 0.1
2014-Sep-18 01:33N 22°18' E 114°13'0 0.0
2014-Sep-18 00:30N 22°18' E 114°13'1 1.0
2014-Sep-17 23:33N 22°17' E 114°14'1 0.1
2014-Sep-17 12:28N 22°18' E 114°13'0 0.0
2014-Sep-17 11:31N 22°18' E 114°13'0 0.0
2014-Sep-17 10:31N 22°18' E 114°13'0 0.0
2014-Sep-17 09:31N 22°18' E 114°13'0 0.0
2014-Sep-17 08:31N 22°18' E 114°13'0 0.0
2014-Sep-17 07:31N 22°18' E 114°13'0 0.0
2014-Sep-17 06:28N 22°18' E 114°13'0 0.0
2014-Sep-17 05:31N 22°18' E 114°13'0 0.0
2014-Sep-17 04:28N 22°18' E 114°13'0 0.0
2014-Sep-17 03:25N 22°18' E 114°13'0 0.0
2014-Sep-17 02:31N 22°18' E 114°13'0 0.0
2014-Sep-17 01:31N 22°18' E 114°13'0 0.1
2014-Sep-17 00:33N 22°18' E 114°13'6 2.5
2014-Sep-16 22:16N 22°18' E 114°07'0 0.0
2014-Sep-16 20:04N 22°18' E 114°07'0 0.0
2014-Sep-16 15:09N 22°18' E 114°07'0 0.0
2014-Sep-16 14:33N 22°18' E 114°07'0 0.0
2014-Sep-16 13:15N 22°18' E 114°07'0 0.0
2014-Sep-16 12:33N 22°18' E 114°07'0 0.0
2014-Sep-16 06:03N 22°18' E 114°07'0 0.0
2014-Sep-16 03:27N 22°18' E 114°07'0 0.0
2014-Sep-16 02:09N 22°18' E 114°07'0 0.0
2014-Sep-15 22:27N 22°18' E 114°07'2 0.1
2014-Sep-15 07:33N 22°18' E 114°09'4 3.5
2014-Sep-15 06:25N 22°18' E 114°13'0 0.0
2014-Sep-15 05:31N 22°18' E 114°13'0 0.0
2014-Sep-15 04:31N 22°18' E 114°13'0 0.1
2014-Sep-15 03:22N 22°18' E 114°13'0 0.1
2014-Sep-15 02:25N 22°18' E 114°13'0 0.0
2014-Sep-15 01:31N 22°18' E 114°13'0 0.0
2014-Sep-15 00:31N 22°18' E 114°13'1 1.0
2014-Sep-14 23:34N 22°17' E 114°14'1 0.1
2014-Sep-14 12:33N 22°18' E 114°13'0 0.0
2014-Sep-14 11:33N 22°18' E 114°13'0 0.0
2014-Sep-14 10:33N 22°18' E 114°13'0 0.1
2014-Sep-14 09:33N 22°18' E 114°13'0 0.1
2014-Sep-14 08:33N 22°18' E 114°13'0 0.1
2014-Sep-14 07:33N 22°18' E 114°13'0 0.1
2014-Sep-14 06:33N 22°18' E 114°13'0 0.1
2014-Sep-14 05:33N 22°18' E 114°13'0 0.0
2014-Sep-14 04:33N 22°18' E 114°13'0 0.0
2014-Sep-14 03:33N 22°18' E 114°13'0 0.0
2014-Sep-14 02:33N 22°18' E 114°13'0 0.0
2014-Sep-14 01:32N 22°18' E 114°13'0 0.0
2014-Sep-13 12:33N 22°18' E 114°13'0 0.1
2014-Sep-13 11:33N 22°18' E 114°13'0 0.1
2014-Sep-13 10:33N 22°18' E 114°13'0 0.0
2014-Sep-13 09:33N 22°18' E 114°13'0 0.0
2014-Sep-13 08:33N 22°18' E 114°13'0 0.0
2014-Sep-13 07:33N 22°18' E 114°13'0 0.0
2014-Sep-13 06:33N 22°18' E 114°13'0 0.1
2014-Sep-13 05:33N 22°18' E 114°13'0 0.0
2014-Sep-13 04:33N 22°18' E 114°13'0 0.0
2014-Sep-13 03:33N 22°18' E 114°13'0 0.0
2014-Sep-13 02:32N 22°18' E 114°13'0 0.0
2014-Sep-13 01:32N 22°18' E 114°13'0 0.0
2014-Sep-13 00:32N 22°18' E 114°13'1 0.6
2014-Sep-12 23:33N 22°17' E 114°14'1 0.1
2014-Sep-12 12:31N 22°18' E 114°13'0 0.1
2014-Sep-12 11:31N 22°18' E 114°13'0 0.0
2014-Sep-12 10:31N 22°18' E 114°13'0 0.1
2014-Sep-12 09:31N 22°18' E 114°13'0 0.0
2014-Sep-12 08:31N 22°18' E 114°13'0 0.1
2014-Sep-12 07:31N 22°18' E 114°13'0 0.1
2014-Sep-12 06:31N 22°18' E 114°13'0 0.0
2014-Sep-12 05:31N 22°18' E 114°13'0 0.1
2014-Sep-12 04:28N 22°18' E 114°13'0 0.0
2014-Sep-12 03:31N 22°18' E 114°13'0 0.0
2014-Sep-12 02:31N 22°18' E 114°13'0 0.0
2014-Sep-12 01:28N 22°18' E 114°13'0 0.0
2014-Sep-12 00:31N 22°18' E 114°13'1 0.9
2014-Sep-11 23:33N 22°17' E 114°14'1 0.1
2014-Sep-11 12:33N 22°18' E 114°13'0 0.0
2014-Sep-11 11:33N 22°18' E 114°13'0 0.0
2014-Sep-11 10:33N 22°18' E 114°13'0 0.1
2014-Sep-11 09:27N 22°18' E 114°13'0 0.0
2014-Sep-11 08:33N 22°18' E 114°13'0 0.0
2014-Sep-11 07:33N 22°18' E 114°13'0 0.0
2014-Sep-11 06:30N 22°18' E 114°13'0 0.0
2014-Sep-11 05:33N 22°18' E 114°13'0 0.0
2014-Sep-11 04:33N 22°18' E 114°13'0 0.0
2014-Sep-11 03:33N 22°18' E 114°13'0 0.1
2014-Sep-11 02:30N 22°18' E 114°13'0 0.0
2014-Sep-11 01:33N 22°18' E 114°13'0 0.0
2014-Sep-11 00:33N 22°18' E 114°13'1 1.0
2014-Sep-10 23:33N 22°17' E 114°14'1 0.1
2014-Sep-10 12:32N 22°18' E 114°13'0 0.1
2014-Sep-10 11:32N 22°18' E 114°13'0 0.0
2014-Sep-10 10:32N 22°18' E 114°13'0 0.0
2014-Sep-10 09:32N 22°18' E 114°13'0 0.1
2014-Sep-10 08:32N 22°18' E 114°13'0 0.0
2014-Sep-10 07:32N 22°18' E 114°13'0 0.0
2014-Sep-10 06:32N 22°18' E 114°13'0 0.0
2014-Sep-10 05:32N 22°18' E 114°13'0 0.0
2014-Sep-10 04:32N 22°18' E 114°13'0 0.0
2014-Sep-10 03:32N 22°18' E 114°13'0 0.0
2014-Sep-10 02:32N 22°18' E 114°13'0 0.0
2014-Sep-10 01:32N 22°18' E 114°13'0 0.1
2014-Sep-10 00:32N 22°18' E 114°13'1 0.5
2014-Sep-09 23:33N 22°17' E 114°14'  

Dump ship's entire track history